sensor_id;sensor_type;location;lat;lon;timestamp;P1;durP1;ratioP1;P2;durP2;ratioP2
37275;SDS011;23166;51.150;21.620;2022-09-09T00:01:11;12.18;;;6.03;;
37275;SDS011;23166;51.150;21.620;2022-09-09T00:03:43;10.88;;;5.37;;
37275;SDS011;23166;51.150;21.620;2022-09-09T00:06:16;9.48;;;5.42;;
37275;SDS011;23166;51.150;21.620;2022-09-09T00:11:17;12.82;;;5.87;;
37275;SDS011;23166;51.150;21.620;2022-09-09T00:13:48;9.48;;;5.15;;
37275;SDS011;23166;51.150;21.620;2022-09-09T00:16:18;13.95;;;4.90;;
37275;SDS011;23166;51.150;21.620;2022-09-09T00:21:23;10.38;;;4.60;;
37275;SDS011;23166;51.150;21.620;2022-09-09T00:23:54;8.10;;;4.37;;
37275;SDS011;23166;51.150;21.620;2022-09-09T00:31:54;10.38;;;5.10;;
37275;SDS011;23166;51.150;21.620;2022-09-09T00:34:23;9.25;;;3.90;;
37275;SDS011;23166;51.150;21.620;2022-09-09T00:36:52;8.85;;;4.05;;
37275;SDS011;23166;51.150;21.620;2022-09-09T00:42:18;12.35;;;4.17;;
37275;SDS011;23166;51.150;21.620;2022-09-09T00:47:53;8.90;;;5.22;;
37275;SDS011;23166;51.150;21.620;2022-09-09T00:50:22;9.75;;;4.78;;
37275;SDS011;23166;51.150;21.620;2022-09-09T00:58:47;11.28;;;4.45;;
37275;SDS011;23166;51.150;21.620;2022-09-09T01:01:11;9.35;;;4.28;;
37275;SDS011;23166;51.150;21.620;2022-09-09T01:14:47;10.38;;;3.45;;
37275;SDS011;23166;51.150;21.620;2022-09-09T01:17:15;12.63;;;5.22;;
37275;SDS011;23166;51.150;21.620;2022-09-09T01:28:08;8.30;;;4.45;;
37275;SDS011;23166;51.150;21.620;2022-09-09T01:30:38;8.85;;;4.37;;
37275;SDS011;23166;51.150;21.620;2022-09-09T01:33:04;8.60;;;4.28;;
37275;SDS011;23166;51.150;21.620;2022-09-09T01:38:16;10.25;;;5.15;;
37275;SDS011;23166;51.150;21.620;2022-09-09T01:40:43;16.90;;;4.58;;
37275;SDS011;23166;51.150;21.620;2022-09-09T01:43:10;9.68;;;4.97;;
37275;SDS011;23166;51.150;21.620;2022-09-09T01:45:37;7.92;;;4.15;;
37275;SDS011;23166;51.150;21.620;2022-09-09T01:48:06;7.17;;;4.92;;
37275;SDS011;23166;51.150;21.620;2022-09-09T01:50:32;8.80;;;4.90;;
37275;SDS011;23166;51.150;21.620;2022-09-09T01:52:59;8.73;;;4.72;;
37275;SDS011;23166;51.150;21.620;2022-09-09T01:55:32;8.75;;;5.62;;
37275;SDS011;23166;51.150;21.620;2022-09-09T02:03:44;13.45;;;5.60;;
37275;SDS011;23166;51.150;21.620;2022-09-09T02:08:50;11.83;;;4.55;;
37275;SDS011;23166;51.150;21.620;2022-09-09T02:11:19;14.98;;;5.80;;
37275;SDS011;23166;51.150;21.620;2022-09-09T02:13:53;10.78;;;5.47;;
37275;SDS011;23166;51.150;21.620;2022-09-09T02:18:55;10.43;;;5.22;;
37275;SDS011;23166;51.150;21.620;2022-09-09T02:21:24;11.30;;;5.53;;
37275;SDS011;23166;51.150;21.620;2022-09-09T02:26:18;9.70;;;5.40;;
37275;SDS011;23166;51.150;21.620;2022-09-09T02:28:49;13.83;;;5.37;;
37275;SDS011;23166;51.150;21.620;2022-09-09T02:31:17;18.87;;;5.33;;
37275;SDS011;23166;51.150;21.620;2022-09-09T02:33:47;12.30;;;5.12;;
37275;SDS011;23166;51.150;21.620;2022-09-09T02:36:16;11.63;;;5.60;;
37275;SDS011;23166;51.150;21.620;2022-09-09T02:38:47;11.73;;;6.22;;
37275;SDS011;23166;51.150;21.620;2022-09-09T02:41:19;9.43;;;4.78;;
37275;SDS011;23166;51.150;21.620;2022-09-09T02:43:48;8.50;;;5.17;;
37275;SDS011;23166;51.150;21.620;2022-09-09T02:49:00;10.58;;;5.35;;
37275;SDS011;23166;51.150;21.620;2022-09-09T02:51:53;10.82;;;4.70;;
37275;SDS011;23166;51.150;21.620;2022-09-09T02:57:06;12.15;;;5.08;;
37275;SDS011;23166;51.150;21.620;2022-09-09T02:59:31;9.55;;;4.40;;
37275;SDS011;23166;51.150;21.620;2022-09-09T03:01:58;15.38;;;5.67;;
37275;SDS011;23166;51.150;21.620;2022-09-09T03:04:24;17.55;;;6.97;;
37275;SDS011;23166;51.150;21.620;2022-09-09T03:06:50;11.20;;;5.87;;
37275;SDS011;23166;51.150;21.620;2022-09-09T03:09:17;13.90;;;6.15;;
37275;SDS011;23166;51.150;21.620;2022-09-09T03:11:43;7.47;;;4.95;;
37275;SDS011;23166;51.150;21.620;2022-09-09T03:14:10;16.27;;;7.42;;
37275;SDS011;23166;51.150;21.620;2022-09-09T03:16:37;18.85;;;6.70;;
37275;SDS011;23166;51.150;21.620;2022-09-09T03:19:03;10.53;;;5.28;;
37275;SDS011;23166;51.150;21.620;2022-09-09T03:21:30;16.27;;;6.08;;
37275;SDS011;23166;51.150;21.620;2022-09-09T03:23:57;10.45;;;5.97;;
37275;SDS011;23166;51.150;21.620;2022-09-09T03:26:23;11.48;;;6.35;;
37275;SDS011;23166;51.150;21.620;2022-09-09T03:28:50;17.57;;;6.35;;
37275;SDS011;23166;51.150;21.620;2022-09-09T03:33:44;17.27;;;6.00;;
37275;SDS011;23166;51.150;21.620;2022-09-09T03:36:11;10.32;;;5.40;;
37275;SDS011;23166;51.150;21.620;2022-09-09T03:38:37;16.70;;;6.53;;
37275;SDS011;23166;51.150;21.620;2022-09-09T03:41:04;15.10;;;6.95;;
37275;SDS011;23166;51.150;21.620;2022-09-09T03:43:32;16.12;;;6.65;;
37275;SDS011;23166;51.150;21.620;2022-09-09T03:45:58;17.77;;;6.40;;
37275;SDS011;23166;51.150;21.620;2022-09-09T03:48:24;14.15;;;6.30;;
37275;SDS011;23166;51.150;21.620;2022-09-09T03:50:53;12.60;;;5.40;;
37275;SDS011;23166;51.150;21.620;2022-09-09T03:53:25;18.35;;;6.53;;
37275;SDS011;23166;51.150;21.620;2022-09-09T03:55:53;9.73;;;4.97;;
37275;SDS011;23166;51.150;21.620;2022-09-09T03:58:22;14.20;;;6.72;;
37275;SDS011;23166;51.150;21.620;2022-09-09T04:01:07;17.17;;;5.55;;
37275;SDS011;23166;51.150;21.620;2022-09-09T04:03:31;12.28;;;5.40;;
37275;SDS011;23166;51.150;21.620;2022-09-09T04:05:58;14.40;;;6.17;;
37275;SDS011;23166;51.150;21.620;2022-09-09T04:08:26;15.18;;;6.37;;
37275;SDS011;23166;51.150;21.620;2022-09-09T04:10:52;12.98;;;6.15;;
37275;SDS011;23166;51.150;21.620;2022-09-09T04:13:21;15.43;;;5.95;;
37275;SDS011;23166;51.150;21.620;2022-09-09T04:15:55;15.58;;;6.80;;
37275;SDS011;23166;51.150;21.620;2022-09-09T04:18:20;15.53;;;6.75;;
37275;SDS011;23166;51.150;21.620;2022-09-09T04:20:47;13.35;;;6.12;;
37275;SDS011;23166;51.150;21.620;2022-09-09T04:23:16;16.45;;;6.92;;
37275;SDS011;23166;51.150;21.620;2022-09-09T04:25:45;12.43;;;6.87;;
37275;SDS011;23166;51.150;21.620;2022-09-09T04:28:17;16.23;;;6.60;;
37275;SDS011;23166;51.150;21.620;2022-09-09T04:30:41;16.60;;;6.03;;
37275;SDS011;23166;51.150;21.620;2022-09-09T04:33:09;14.30;;;6.08;;
37275;SDS011;23166;51.150;21.620;2022-09-09T04:35:36;11.57;;;6.85;;
37275;SDS011;23166;51.150;21.620;2022-09-09T04:38:04;11.22;;;5.72;;
37275;SDS011;23166;51.150;21.620;2022-09-09T04:40:33;20.70;;;6.67;;
37275;SDS011;23166;51.150;21.620;2022-09-09T04:42:59;12.37;;;6.92;;
37275;SDS011;23166;51.150;21.620;2022-09-09T04:45:26;15.03;;;7.20;;
37275;SDS011;23166;51.150;21.620;2022-09-09T04:47:53;9.75;;;5.17;;
37275;SDS011;23166;51.150;21.620;2022-09-09T04:50:19;14.23;;;6.60;;
37275;SDS011;23166;51.150;21.620;2022-09-09T04:52:46;15.23;;;5.62;;
37275;SDS011;23166;51.150;21.620;2022-09-09T04:55:12;15.63;;;7.08;;
37275;SDS011;23166;51.150;21.620;2022-09-09T04:57:39;9.75;;;5.05;;
37275;SDS011;23166;51.150;21.620;2022-09-09T05:02:36;12.93;;;6.20;;
37275;SDS011;23166;51.150;21.620;2022-09-09T05:05:06;12.55;;;6.45;;
37275;SDS011;23166;51.150;21.620;2022-09-09T05:07:33;17.40;;;6.05;;
37275;SDS011;23166;51.150;21.620;2022-09-09T05:09:59;13.98;;;6.35;;
37275;SDS011;23166;51.150;21.620;2022-09-09T05:12:25;13.08;;;6.17;;
37275;SDS011;23166;51.150;21.620;2022-09-09T05:14:52;11.08;;;5.55;;
37275;SDS011;23166;51.150;21.620;2022-09-09T05:17:19;14.13;;;7.28;;
37275;SDS011;23166;51.150;21.620;2022-09-09T05:19:45;11.63;;;6.13;;
37275;SDS011;23166;51.150;21.620;2022-09-09T05:22:12;9.70;;;5.25;;
37275;SDS011;23166;51.150;21.620;2022-09-09T05:24:38;11.53;;;6.25;;
37275;SDS011;23166;51.150;21.620;2022-09-09T05:27:04;14.05;;;6.25;;
37275;SDS011;23166;51.150;21.620;2022-09-09T05:29:32;14.00;;;5.75;;
37275;SDS011;23166;51.150;21.620;2022-09-09T05:32:00;11.73;;;6.35;;
37275;SDS011;23166;51.150;21.620;2022-09-09T05:34:27;10.88;;;5.67;;
37275;SDS011;23166;51.150;21.620;2022-09-09T05:36:54;17.05;;;5.90;;
37275;SDS011;23166;51.150;21.620;2022-09-09T05:39:20;15.65;;;5.95;;
37275;SDS011;23166;51.150;21.620;2022-09-09T05:41:47;14.07;;;5.97;;
37275;SDS011;23166;51.150;21.620;2022-09-09T05:44:13;10.23;;;6.00;;
37275;SDS011;23166;51.150;21.620;2022-09-09T05:46:39;11.95;;;6.28;;
37275;SDS011;23166;51.150;21.620;2022-09-09T05:49:06;13.30;;;6.55;;
37275;SDS011;23166;51.150;21.620;2022-09-09T05:51:34;12.00;;;6.08;;
37275;SDS011;23166;51.150;21.620;2022-09-09T05:54:00;16.87;;;6.28;;
37275;SDS011;23166;51.150;21.620;2022-09-09T05:56:27;17.30;;;7.35;;
37275;SDS011;23166;51.150;21.620;2022-09-09T05:58:55;12.73;;;6.40;;
37275;SDS011;23166;51.150;21.620;2022-09-09T06:03:49;16.40;;;7.90;;
37275;SDS011;23166;51.150;21.620;2022-09-09T06:06:21;14.73;;;6.28;;
37275;SDS011;23166;51.150;21.620;2022-09-09T06:08:50;17.60;;;7.85;;
37275;SDS011;23166;51.150;21.620;2022-09-09T06:11:21;18.50;;;7.78;;
37275;SDS011;23166;51.150;21.620;2022-09-09T06:13:49;15.45;;;6.85;;
37275;SDS011;23166;51.150;21.620;2022-09-09T06:16:18;13.72;;;6.65;;
37275;SDS011;23166;51.150;21.620;2022-09-09T06:18:47;11.30;;;6.80;;
37275;SDS011;23166;51.150;21.620;2022-09-09T06:21:15;20.10;;;6.37;;
37275;SDS011;23166;51.150;21.620;2022-09-09T06:23:44;17.82;;;8.33;;
37275;SDS011;23166;51.150;21.620;2022-09-09T06:26:12;17.92;;;7.20;;
37275;SDS011;23166;51.150;21.620;2022-09-09T06:28:44;16.20;;;7.70;;
37275;SDS011;23166;51.150;21.620;2022-09-09T06:31:11;19.32;;;6.62;;
37275;SDS011;23166;51.150;21.620;2022-09-09T06:33:39;16.73;;;8.15;;
37275;SDS011;23166;51.150;21.620;2022-09-09T06:36:12;16.20;;;7.28;;
37275;SDS011;23166;51.150;21.620;2022-09-09T06:38:43;15.95;;;7.70;;
37275;SDS011;23166;51.150;21.620;2022-09-09T06:41:11;18.62;;;7.42;;
37275;SDS011;23166;51.150;21.620;2022-09-09T06:43:39;14.03;;;7.30;;
37275;SDS011;23166;51.150;21.620;2022-09-09T06:46:08;20.30;;;7.10;;
37275;SDS011;23166;51.150;21.620;2022-09-09T06:48:36;13.15;;;6.22;;
37275;SDS011;23166;51.150;21.620;2022-09-09T06:51:09;14.90;;;7.67;;
37275;SDS011;23166;51.150;21.620;2022-09-09T06:53:38;15.35;;;7.40;;
37275;SDS011;23166;51.150;21.620;2022-09-09T06:56:19;14.50;;;7.90;;
37275;SDS011;23166;51.150;21.620;2022-09-09T06:58:49;20.82;;;7.95;;
37275;SDS011;23166;51.150;21.620;2022-09-09T07:01:22;16.93;;;7.58;;
37275;SDS011;23166;51.150;21.620;2022-09-09T07:03:48;18.70;;;7.95;;
37275;SDS011;23166;51.150;21.620;2022-09-09T07:06:17;15.78;;;7.67;;
37275;SDS011;23166;51.150;21.620;2022-09-09T07:08:53;16.42;;;7.00;;
37275;SDS011;23166;51.150;21.620;2022-09-09T07:11:18;18.95;;;6.55;;
37275;SDS011;23166;51.150;21.620;2022-09-09T07:13:46;12.82;;;7.35;;
37275;SDS011;23166;51.150;21.620;2022-09-09T07:16:15;14.60;;;7.42;;
37275;SDS011;23166;51.150;21.620;2022-09-09T07:18:43;14.93;;;6.67;;
37275;SDS011;23166;51.150;21.620;2022-09-09T07:21:10;15.98;;;7.17;;
37275;SDS011;23166;51.150;21.620;2022-09-09T07:23:38;19.98;;;7.85;;
37275;SDS011;23166;51.150;21.620;2022-09-09T07:26:13;15.85;;;7.85;;
37275;SDS011;23166;51.150;21.620;2022-09-09T07:28:37;16.27;;;7.25;;
37275;SDS011;23166;51.150;21.620;2022-09-09T07:31:04;15.93;;;7.70;;
37275;SDS011;23166;51.150;21.620;2022-09-09T07:33:32;19.52;;;7.67;;
37275;SDS011;23166;51.150;21.620;2022-09-09T07:36:04;13.88;;;7.15;;
37275;SDS011;23166;51.150;21.620;2022-09-09T07:38:37;19.40;;;8.15;;
37275;SDS011;23166;51.150;21.620;2022-09-09T07:41:06;17.55;;;8.53;;
37275;SDS011;23166;51.150;21.620;2022-09-09T07:43:36;14.63;;;7.53;;
37275;SDS011;23166;51.150;21.620;2022-09-09T07:48:29;20.88;;;8.33;;
37275;SDS011;23166;51.150;21.620;2022-09-09T07:51:14;18.80;;;8.33;;
37275;SDS011;23166;51.150;21.620;2022-09-09T07:53:36;19.50;;;8.28;;
37275;SDS011;23166;51.150;21.620;2022-09-09T07:56:07;16.20;;;7.97;;
37275;SDS011;23166;51.150;21.620;2022-09-09T07:58:37;15.68;;;7.50;;
37275;SDS011;23166;51.150;21.620;2022-09-09T08:01:13;17.77;;;6.65;;
37275;SDS011;23166;51.150;21.620;2022-09-09T08:03:37;18.82;;;6.80;;
37275;SDS011;23166;51.150;21.620;2022-09-09T08:06:05;11.93;;;6.75;;
37275;SDS011;23166;51.150;21.620;2022-09-09T08:08:34;14.87;;;6.80;;
37275;SDS011;23166;51.150;21.620;2022-09-09T08:11:06;21.70;;;8.65;;
37275;SDS011;23166;51.150;21.620;2022-09-09T08:13:38;14.47;;;7.55;;
37275;SDS011;23166;51.150;21.620;2022-09-09T08:16:05;15.25;;;7.65;;
37275;SDS011;23166;51.150;21.620;2022-09-09T08:18:33;15.30;;;7.47;;
37275;SDS011;23166;51.150;21.620;2022-09-09T08:21:11;15.78;;;8.23;;
37275;SDS011;23166;51.150;21.620;2022-09-09T08:23:39;18.17;;;8.80;;
37275;SDS011;23166;51.150;21.620;2022-09-09T08:26:11;16.32;;;7.58;;
37275;SDS011;23166;51.150;21.620;2022-09-09T08:28:39;17.42;;;8.15;;
37275;SDS011;23166;51.150;21.620;2022-09-09T08:33:39;18.17;;;8.00;;
37275;SDS011;23166;51.150;21.620;2022-09-09T08:36:08;16.90;;;7.87;;
37275;SDS011;23166;51.150;21.620;2022-09-09T08:38:37;17.67;;;8.50;;
37275;SDS011;23166;51.150;21.620;2022-09-09T08:41:07;18.90;;;7.75;;
37275;SDS011;23166;51.150;21.620;2022-09-09T08:43:40;15.17;;;7.53;;
37275;SDS011;23166;51.150;21.620;2022-09-09T08:46:14;18.50;;;7.72;;
37275;SDS011;23166;51.150;21.620;2022-09-09T08:48:50;15.28;;;7.45;;
37275;SDS011;23166;51.150;21.620;2022-09-09T08:51:18;16.95;;;7.72;;
37275;SDS011;23166;51.150;21.620;2022-09-09T08:56:14;10.90;;;6.30;;
37275;SDS011;23166;51.150;21.620;2022-09-09T08:58:49;17.40;;;8.80;;
37275;SDS011;23166;51.150;21.620;2022-09-09T09:09:46;18.97;;;8.27;;
37275;SDS011;23166;51.150;21.620;2022-09-09T09:12:22;18.80;;;7.75;;
37275;SDS011;23166;51.150;21.620;2022-09-09T09:14:50;15.03;;;8.75;;
37275;SDS011;23166;51.150;21.620;2022-09-09T09:17:18;19.60;;;8.03;;
37275;SDS011;23166;51.150;21.620;2022-09-09T09:19:46;15.50;;;7.25;;
37275;SDS011;23166;51.150;21.620;2022-09-09T09:27:35;16.48;;;7.42;;
37275;SDS011;23166;51.150;21.620;2022-09-09T09:30:22;15.45;;;7.97;;
37275;SDS011;23166;51.150;21.620;2022-09-09T09:35:50;19.48;;;8.13;;
37275;SDS011;23166;51.150;21.620;2022-09-09T09:38:24;20.57;;;9.83;;
37275;SDS011;23166;51.150;21.620;2022-09-09T09:40:53;20.82;;;9.00;;
37275;SDS011;23166;51.150;21.620;2022-09-09T09:43:29;21.48;;;8.65;;
37275;SDS011;23166;51.150;21.620;2022-09-09T09:45:56;22.05;;;9.18;;
37275;SDS011;23166;51.150;21.620;2022-09-09T09:48:25;21.68;;;8.25;;
37275;SDS011;23166;51.150;21.620;2022-09-09T09:51:05;23.25;;;9.35;;
37275;SDS011;23166;51.150;21.620;2022-09-09T09:53:36;13.95;;;6.87;;
37275;SDS011;23166;51.150;21.620;2022-09-09T09:56:08;20.45;;;9.75;;
37275;SDS011;23166;51.150;21.620;2022-09-09T09:58:57;17.12;;;7.90;;
37275;SDS011;23166;51.150;21.620;2022-09-09T10:01:33;19.70;;;8.83;;
37275;SDS011;23166;51.150;21.620;2022-09-09T10:06:50;21.48;;;9.00;;
37275;SDS011;23166;51.150;21.620;2022-09-09T10:09:38;18.50;;;8.60;;
37275;SDS011;23166;51.150;21.620;2022-09-09T10:11:55;20.15;;;8.18;;
37275;SDS011;23166;51.150;21.620;2022-09-09T10:14:20;14.78;;;8.08;;
37275;SDS011;23166;51.150;21.620;2022-09-09T10:19:30;18.55;;;9.63;;
37275;SDS011;23166;51.150;21.620;2022-09-09T10:22:08;21.23;;;8.75;;
37275;SDS011;23166;51.150;21.620;2022-09-09T10:52:23;24.45;;;8.80;;
37275;SDS011;23166;51.150;21.620;2022-09-09T10:54:58;17.27;;;7.58;;
37275;SDS011;23166;51.150;21.620;2022-09-09T10:57:45;17.85;;;9.18;;
37275;SDS011;23166;51.150;21.620;2022-09-09T11:00:21;21.25;;;7.58;;
37275;SDS011;23166;51.150;21.620;2022-09-09T11:02:54;18.37;;;8.50;;
37275;SDS011;23166;51.150;21.620;2022-09-09T11:10:57;16.70;;;8.93;;
37275;SDS011;23166;51.150;21.620;2022-09-09T11:16:35;23.98;;;9.70;;
37275;SDS011;23166;51.150;21.620;2022-09-09T11:19:26;18.37;;;8.38;;
37275;SDS011;23166;51.150;21.620;2022-09-09T11:22:04;16.70;;;8.95;;
37275;SDS011;23166;51.150;21.620;2022-09-09T11:24:44;20.45;;;9.65;;
37275;SDS011;23166;51.150;21.620;2022-09-09T11:30:19;22.50;;;8.98;;
37275;SDS011;23166;51.150;21.620;2022-09-09T11:38:47;14.85;;;6.92;;
37275;SDS011;23166;51.150;21.620;2022-09-09T11:41:16;16.32;;;7.33;;
37275;SDS011;23166;51.150;21.620;2022-09-09T11:43:49;13.95;;;7.37;;
37275;SDS011;23166;51.150;21.620;2022-09-09T11:46:19;15.75;;;7.42;;
37275;SDS011;23166;51.150;21.620;2022-09-09T11:49:01;16.20;;;7.35;;
37275;SDS011;23166;51.150;21.620;2022-09-09T11:51:30;18.27;;;7.75;;
37275;SDS011;23166;51.150;21.620;2022-09-09T11:53:59;17.27;;;6.85;;
37275;SDS011;23166;51.150;21.620;2022-09-09T11:56:45;14.90;;;7.42;;
37275;SDS011;23166;51.150;21.620;2022-09-09T11:59:26;13.13;;;6.80;;
37275;SDS011;23166;51.150;21.620;2022-09-09T12:02:08;14.30;;;7.17;;
37275;SDS011;23166;51.150;21.620;2022-09-09T12:04:54;12.68;;;6.45;;
37275;SDS011;23166;51.150;21.620;2022-09-09T12:07:30;15.38;;;7.35;;
37275;SDS011;23166;51.150;21.620;2022-09-09T12:12:48;20.00;;;8.38;;
37275;SDS011;23166;51.150;21.620;2022-09-09T12:15:19;20.08;;;7.67;;
37275;SDS011;23166;51.150;21.620;2022-09-09T12:17:52;13.13;;;6.67;;
37275;SDS011;23166;51.150;21.620;2022-09-09T12:20:21;12.70;;;7.35;;
37275;SDS011;23166;51.150;21.620;2022-09-09T12:23:03;17.20;;;8.65;;
37275;SDS011;23166;51.150;21.620;2022-09-09T12:34:10;13.60;;;7.03;;
37275;SDS011;23166;51.150;21.620;2022-09-09T12:36:38;10.95;;;6.40;;
37275;SDS011;23166;51.150;21.620;2022-09-09T12:39:16;13.10;;;7.87;;
37275;SDS011;23166;51.150;21.620;2022-09-09T12:41:40;15.58;;;6.35;;
37275;SDS011;23166;51.150;21.620;2022-09-09T12:44:08;16.07;;;8.25;;
37275;SDS011;23166;51.150;21.620;2022-09-09T12:46:36;16.73;;;6.80;;
37275;SDS011;23166;51.150;21.620;2022-09-09T12:52:08;15.50;;;7.33;;
37275;SDS011;23166;51.150;21.620;2022-09-09T12:54:50;14.57;;;6.70;;
37275;SDS011;23166;51.150;21.620;2022-09-09T12:57:18;15.13;;;7.37;;
37275;SDS011;23166;51.150;21.620;2022-09-09T12:59:47;20.27;;;7.15;;
37275;SDS011;23166;51.150;21.620;2022-09-09T13:04:50;16.48;;;6.53;;
37275;SDS011;23166;51.150;21.620;2022-09-09T13:07:18;14.47;;;6.20;;
37275;SDS011;23166;51.150;21.620;2022-09-09T13:09:48;12.00;;;6.40;;
37275;SDS011;23166;51.150;21.620;2022-09-09T13:12:20;16.40;;;6.33;;
37275;SDS011;23166;51.150;21.620;2022-09-09T13:14:51;18.10;;;7.47;;
37275;SDS011;23166;51.150;21.620;2022-09-09T13:19:54;9.38;;;5.72;;
37275;SDS011;23166;51.150;21.620;2022-09-09T13:25:02;12.85;;;6.17;;
37275;SDS011;23166;51.150;21.620;2022-09-09T13:27:34;18.55;;;7.70;;
37275;SDS011;23166;51.150;21.620;2022-09-09T13:38:21;13.70;;;6.25;;
37275;SDS011;23166;51.150;21.620;2022-09-09T13:40:52;12.25;;;5.65;;
37275;SDS011;23166;51.150;21.620;2022-09-09T13:43:25;12.93;;;6.12;;
37275;SDS011;23166;51.150;21.620;2022-09-09T13:45:53;15.95;;;5.95;;
37275;SDS011;23166;51.150;21.620;2022-09-09T13:48:22;19.67;;;6.10;;
37275;SDS011;23166;51.150;21.620;2022-09-09T13:53:21;13.62;;;7.50;;
37275;SDS011;23166;51.150;21.620;2022-09-09T13:55:48;11.48;;;6.28;;
37275;SDS011;23166;51.150;21.620;2022-09-09T13:58:15;9.98;;;5.58;;
37275;SDS011;23166;51.150;21.620;2022-09-09T14:00:43;12.75;;;4.92;;
37275;SDS011;23166;51.150;21.620;2022-09-09T14:03:10;10.78;;;5.25;;
37275;SDS011;23166;51.150;21.620;2022-09-09T14:05:37;15.32;;;6.35;;
37275;SDS011;23166;51.150;21.620;2022-09-09T14:10:38;10.72;;;5.67;;
37275;SDS011;23166;51.150;21.620;2022-09-09T14:13:07;9.05;;;4.80;;
37275;SDS011;23166;51.150;21.620;2022-09-09T14:15:34;10.75;;;5.72;;
37275;SDS011;23166;51.150;21.620;2022-09-09T14:18:00;14.05;;;6.80;;
37275;SDS011;23166;51.150;21.620;2022-09-09T14:20:27;11.50;;;5.65;;
37275;SDS011;23166;51.150;21.620;2022-09-09T14:22:54;15.80;;;6.50;;
37275;SDS011;23166;51.150;21.620;2022-09-09T14:25:20;9.93;;;5.37;;
37275;SDS011;23166;51.150;21.620;2022-09-09T14:27:47;10.98;;;5.17;;
37275;SDS011;23166;51.150;21.620;2022-09-09T14:30:13;10.93;;;5.65;;
37275;SDS011;23166;51.150;21.620;2022-09-09T14:32:40;13.80;;;5.33;;
37275;SDS011;23166;51.150;21.620;2022-09-09T14:35:06;8.43;;;4.70;;
37275;SDS011;23166;51.150;21.620;2022-09-09T14:37:33;9.13;;;4.58;;
37275;SDS011;23166;51.150;21.620;2022-09-09T14:39:59;10.75;;;5.10;;
37275;SDS011;23166;51.150;21.620;2022-09-09T14:42:26;13.15;;;5.05;;
37275;SDS011;23166;51.150;21.620;2022-09-09T14:44:52;14.80;;;6.20;;
37275;SDS011;23166;51.150;21.620;2022-09-09T14:47:19;11.33;;;5.35;;
37275;SDS011;23166;51.150;21.620;2022-09-09T14:49:45;9.90;;;6.53;;
37275;SDS011;23166;51.150;21.620;2022-09-09T14:52:13;12.93;;;6.08;;
37275;SDS011;23166;51.150;21.620;2022-09-09T14:54:40;15.18;;;6.35;;
37275;SDS011;23166;51.150;21.620;2022-09-09T14:57:06;13.03;;;6.28;;
37275;SDS011;23166;51.150;21.620;2022-09-09T14:59:33;14.83;;;6.47;;
37275;SDS011;23166;51.150;21.620;2022-09-09T15:02:00;12.78;;;6.35;;
37275;SDS011;23166;51.150;21.620;2022-09-09T15:04:28;20.35;;;8.35;;
37275;SDS011;23166;51.150;21.620;2022-09-09T15:06:54;13.08;;;7.12;;
37275;SDS011;23166;51.150;21.620;2022-09-09T15:09:21;16.77;;;7.75;;
37275;SDS011;23166;51.150;21.620;2022-09-09T15:11:48;16.15;;;6.75;;
37275;SDS011;23166;51.150;21.620;2022-09-09T15:14:15;13.78;;;6.00;;
37275;SDS011;23166;51.150;21.620;2022-09-09T15:16:41;12.43;;;6.90;;
37275;SDS011;23166;51.150;21.620;2022-09-09T15:19:08;17.60;;;6.72;;
37275;SDS011;23166;51.150;21.620;2022-09-09T15:21:35;13.00;;;6.78;;
37275;SDS011;23166;51.150;21.620;2022-09-09T15:24:03;15.50;;;6.80;;
37275;SDS011;23166;51.150;21.620;2022-09-09T15:26:30;18.25;;;6.60;;
37275;SDS011;23166;51.150;21.620;2022-09-09T15:28:57;17.95;;;7.75;;
37275;SDS011;23166;51.150;21.620;2022-09-09T15:31:26;17.48;;;6.50;;
37275;SDS011;23166;51.150;21.620;2022-09-09T15:33:55;16.48;;;6.78;;
37275;SDS011;23166;51.150;21.620;2022-09-09T15:36:28;15.20;;;6.83;;
37275;SDS011;23166;51.150;21.620;2022-09-09T15:38:58;15.40;;;7.47;;
37275;SDS011;23166;51.150;21.620;2022-09-09T15:41:25;18.92;;;8.65;;
37275;SDS011;23166;51.150;21.620;2022-09-09T15:43:53;16.35;;;7.30;;
37275;SDS011;23166;51.150;21.620;2022-09-09T15:46:25;23.62;;;9.05;;
37275;SDS011;23166;51.150;21.620;2022-09-09T15:49:05;13.60;;;6.67;;
37275;SDS011;23166;51.150;21.620;2022-09-09T15:51:37;20.97;;;9.60;;
37275;SDS011;23166;51.150;21.620;2022-09-09T15:54:04;16.20;;;8.80;;
37275;SDS011;23166;51.150;21.620;2022-09-09T15:56:31;15.18;;;7.30;;
37275;SDS011;23166;51.150;21.620;2022-09-09T15:59:00;21.57;;;8.73;;
37275;SDS011;23166;51.150;21.620;2022-09-09T16:01:28;23.20;;;8.35;;
37275;SDS011;23166;51.150;21.620;2022-09-09T16:03:57;24.15;;;8.03;;
37275;SDS011;23166;51.150;21.620;2022-09-09T16:06:24;15.53;;;7.95;;
37275;SDS011;23166;51.150;21.620;2022-09-09T16:08:53;20.32;;;8.30;;
37275;SDS011;23166;51.150;21.620;2022-09-09T16:11:21;23.80;;;7.40;;
37275;SDS011;23166;51.150;21.620;2022-09-09T16:13:50;20.00;;;8.58;;
37275;SDS011;23166;51.150;21.620;2022-09-09T16:16:19;19.45;;;9.15;;
37275;SDS011;23166;51.150;21.620;2022-09-09T16:18:49;19.45;;;8.35;;
37275;SDS011;23166;51.150;21.620;2022-09-09T16:21:19;15.55;;;7.20;;
37275;SDS011;23166;51.150;21.620;2022-09-09T16:23:50;16.80;;;8.55;;
37275;SDS011;23166;51.150;21.620;2022-09-09T16:26:19;20.05;;;8.93;;
37275;SDS011;23166;51.150;21.620;2022-09-09T16:31:16;16.30;;;8.43;;
37275;SDS011;23166;51.150;21.620;2022-09-09T16:33:44;19.07;;;9.80;;
37275;SDS011;23166;51.150;21.620;2022-09-09T16:36:14;22.30;;;8.93;;
37275;SDS011;23166;51.150;21.620;2022-09-09T16:39:00;25.48;;;12.40;;
37275;SDS011;23166;51.150;21.620;2022-09-09T16:41:31;17.65;;;9.33;;
37275;SDS011;23166;51.150;21.620;2022-09-09T16:43:58;20.88;;;9.30;;
37275;SDS011;23166;51.150;21.620;2022-09-09T16:46:28;20.23;;;8.35;;
37275;SDS011;23166;51.150;21.620;2022-09-09T16:48:56;21.40;;;8.60;;
37275;SDS011;23166;51.150;21.620;2022-09-09T16:51:25;18.67;;;7.70;;
37275;SDS011;23166;51.150;21.620;2022-09-09T16:53:54;16.07;;;7.70;;
37275;SDS011;23166;51.150;21.620;2022-09-09T16:56:22;16.77;;;8.18;;
37275;SDS011;23166;51.150;21.620;2022-09-09T16:58:53;15.28;;;7.80;;
37275;SDS011;23166;51.150;21.620;2022-09-09T17:01:22;18.37;;;8.25;;
37275;SDS011;23166;51.150;21.620;2022-09-09T17:03:55;24.50;;;11.78;;
37275;SDS011;23166;51.150;21.620;2022-09-09T17:06:22;18.05;;;9.73;;
37275;SDS011;23166;51.150;21.620;2022-09-09T17:08:53;21.10;;;9.63;;
37275;SDS011;23166;51.150;21.620;2022-09-09T17:11:20;19.00;;;9.33;;
37275;SDS011;23166;51.150;21.620;2022-09-09T17:13:47;22.82;;;9.73;;
37275;SDS011;23166;51.150;21.620;2022-09-09T17:16:14;18.40;;;8.58;;
37275;SDS011;23166;51.150;21.620;2022-09-09T17:18:42;30.97;;;13.58;;
37275;SDS011;23166;51.150;21.620;2022-09-09T17:21:11;25.48;;;11.08;;
37275;SDS011;23166;51.150;21.620;2022-09-09T17:23:40;20.72;;;8.48;;
37275;SDS011;23166;51.150;21.620;2022-09-09T17:26:08;21.62;;;9.00;;
37275;SDS011;23166;51.150;21.620;2022-09-09T17:28:37;18.25;;;8.30;;
37275;SDS011;23166;51.150;21.620;2022-09-09T17:31:08;26.80;;;9.10;;
37275;SDS011;23166;51.150;21.620;2022-09-09T17:33:37;31.50;;;10.30;;
37275;SDS011;23166;51.150;21.620;2022-09-09T17:36:13;20.00;;;8.48;;
37275;SDS011;23166;51.150;21.620;2022-09-09T17:38:41;17.40;;;7.75;;
37275;SDS011;23166;51.150;21.620;2022-09-09T17:41:12;19.02;;;8.50;;